createdAt,value
2022-09-23T00:02:00.278Z,10.02
2022-09-23T00:04:47.006Z,9.99
2022-09-23T00:07:33.644Z,9.95
2022-09-23T00:10:20.420Z,9.93
2022-09-23T00:13:07.140Z,9.90
2022-09-23T00:15:53.860Z,9.87
2022-09-23T00:18:41.709Z,9.84
2022-09-23T00:21:28.522Z,9.82
2022-09-23T00:24:15.813Z,9.76
2022-09-23T00:27:02.509Z,9.74
2022-09-23T00:29:49.166Z,9.71
2022-09-23T00:32:36.489Z,9.68
2022-09-23T00:35:23.412Z,9.66
2022-09-23T00:38:10.069Z,9.61
2022-09-23T00:40:56.822Z,9.58
2022-09-23T00:43:44.957Z,9.54
2022-09-23T00:46:41.168Z,9.52
2022-09-23T00:49:29.249Z,9.48
2022-09-23T00:52:18.088Z,9.45
2022-09-23T00:55:06.640Z,9.42
2022-09-23T00:57:56.934Z,9.38
2022-09-23T01:00:43.712Z,9.36
2022-09-23T01:03:30.358Z,9.33
2022-09-23T01:06:17.121Z,9.29
2022-09-23T01:09:03.841Z,9.26
2022-09-23T01:12:10.024Z,9.23
2022-09-23T01:15:01.195Z,9.20
2022-09-23T01:18:04.259Z,9.16
2022-09-23T01:20:57.057Z,9.13
2022-09-23T01:23:55.991Z,9.08
2022-09-23T01:27:01.151Z,9.06
2022-09-23T01:30:03.836Z,9.03
2022-09-23T01:33:09.038Z,9.01
2022-09-23T01:36:10.130Z,8.97
2022-09-23T01:39:06.151Z,8.95
2022-09-23T01:41:54.718Z,8.91
2022-09-23T01:44:43.719Z,8.88
2022-09-23T01:47:31.091Z,8.85
2022-09-23T01:50:44.502Z,8.82
2022-09-23T01:53:39.746Z,8.78
2022-09-23T01:56:35.031Z,8.77
2022-09-23T01:59:35.491Z,8.73
2022-09-23T02:02:36.388Z,8.71
2022-09-23T02:05:41.997Z,8.67
2022-09-23T02:08:33.166Z,8.64
2022-09-23T02:11:20.021Z,8.62
2022-09-23T02:14:12.492Z,8.59
2022-09-23T02:17:00.740Z,8.56
2022-09-23T02:19:48.982Z,8.53
2022-09-23T02:23:06.114Z,8.50
2022-09-23T02:25:53.127Z,8.45
2022-09-23T02:28:52.441Z,8.41
2022-09-23T02:31:41.721Z,8.39
2022-09-23T02:34:50.579Z,8.36
2022-09-23T02:38:06.739Z,8.32
2022-09-23T02:40:54.507Z,8.30
2022-09-23T02:43:54.783Z,8.28
2022-09-23T02:46:43.524Z,8.24
2022-09-23T02:49:30.817Z,8.20
2022-09-23T02:52:18.063Z,8.17
2022-09-23T02:55:08.062Z,8.15
2022-09-23T02:57:54.707Z,8.13
2022-09-23T03:00:41.311Z,8.10
2022-09-23T03:03:27.913Z,8.08
2022-09-23T03:06:24.802Z,8.06
2022-09-23T03:09:34.711Z,8.04
2022-09-23T03:12:36.605Z,8.01
2022-09-23T03:15:27.943Z,7.99
2022-09-23T03:18:20.322Z,7.97
2022-09-23T03:21:07.949Z,7.94
2022-09-23T03:23:54.626Z,7.93
2022-09-23T03:26:42.501Z,7.90
2022-09-23T03:29:29.197Z,7.87
2022-09-23T03:32:16.479Z,7.85
2022-09-23T03:35:04.007Z,7.84
2022-09-23T03:37:55.502Z,7.83
2022-09-23T03:40:43.429Z,7.81
2022-09-23T03:43:30.560Z,7.77
2022-09-23T03:46:18.551Z,7.76
2022-09-23T03:49:09.471Z,7.74
2022-09-23T03:51:57.942Z,7.72
2022-09-23T03:54:44.734Z,7.71
2022-09-23T03:57:31.854Z,7.68
2022-09-23T04:00:18.608Z,7.67
2022-09-23T04:03:10.924Z,7.66
2022-09-23T04:05:58.430Z,7.64
2022-09-23T04:08:45.097Z,7.63
2022-09-23T04:11:31.759Z,7.62
2022-09-23T04:14:18.732Z,7.61
2022-09-23T04:17:05.371Z,7.59
2022-09-23T04:19:52.031Z,7.58
2022-09-23T04:22:38.688Z,7.56
2022-09-23T04:25:25.354Z,7.55
2022-09-23T04:28:12.027Z,7.53
2022-09-23T04:30:58.859Z,7.52
2022-09-23T04:33:45.495Z,7.49
2022-09-23T04:36:32.890Z,7.48
2022-09-23T04:39:19.554Z,7.47
2022-09-23T04:42:06.247Z,7.46
2022-09-23T04:44:52.923Z,7.44
2022-09-23T04:47:39.562Z,7.43
2022-09-23T04:50:26.268Z,7.41
2022-09-23T04:53:14.122Z,7.41
2022-09-23T04:56:08.245Z,7.39
2022-09-23T04:58:54.881Z,7.39
2022-09-23T05:01:41.724Z,7.37
2022-09-23T05:04:28.889Z,7.37
2022-09-23T05:07:17.032Z,7.36
2022-09-23T05:10:03.794Z,7.34
2022-09-23T05:12:53.644Z,7.33
2022-09-23T05:15:43.631Z,7.31
2022-09-23T05:18:33.694Z,7.30
2022-09-23T05:21:21.296Z,7.29
2022-09-23T05:24:08.718Z,7.27
2022-09-23T05:26:56.058Z,7.25
2022-09-23T05:29:42.732Z,7.24
2022-09-23T05:32:29.410Z,7.22
2022-09-23T05:35:16.049Z,7.23
2022-09-23T05:38:02.692Z,7.22
2022-09-23T05:40:56.113Z,7.21
2022-09-23T05:43:42.926Z,7.20
2022-09-23T05:46:30.156Z,7.20
2022-09-23T05:49:16.911Z,7.17
2022-09-23T05:52:03.548Z,7.16
2022-09-23T05:54:50.235Z,7.14
2022-09-23T05:57:37.087Z,7.13
2022-09-23T06:00:23.835Z,7.11
2022-09-23T06:03:13.562Z,7.11
2022-09-23T06:06:00.303Z,7.11
2022-09-23T06:08:47.213Z,7.11
2022-09-23T06:11:34.857Z,7.09
2022-09-23T06:14:21.554Z,7.09
2022-09-23T06:17:08.234Z,7.09
2022-09-23T06:19:54.985Z,7.08
2022-09-23T06:22:41.622Z,7.09
2022-09-23T06:25:28.266Z,7.09
2022-09-23T06:28:14.965Z,7.08
2022-09-23T06:31:09.625Z,7.09
2022-09-23T06:34:09.907Z,7.10
2022-09-23T06:37:00.658Z,7.09
2022-09-23T06:39:49.854Z,7.10
2022-09-23T06:42:36.493Z,7.10
2022-09-23T06:45:23.459Z,7.11
2022-09-23T06:48:10.159Z,7.12
2022-09-23T06:51:02.363Z,7.13
2022-09-23T06:53:49.305Z,7.14
2022-09-23T06:56:39.668Z,7.16
2022-09-23T06:59:26.621Z,7.17
2022-09-23T07:02:14.264Z,7.19
2022-09-23T07:05:01.028Z,7.20
2022-09-23T07:07:48.047Z,7.21
2022-09-23T07:10:35.008Z,7.22
2022-09-23T07:13:21.680Z,7.25
2022-09-23T07:16:08.689Z,7.26
2022-09-23T07:18:55.381Z,7.29
2022-09-23T07:21:42.017Z,7.28
2022-09-23T07:24:28.672Z,7.23
2022-09-23T07:27:19.348Z,7.20
2022-09-23T07:30:07.320Z,7.18
2022-09-23T07:32:56.092Z,7.19
2022-09-23T07:35:42.840Z,7.23
2022-09-23T07:38:30.099Z,7.26
2022-09-23T07:41:18.116Z,7.30
2022-09-23T07:44:06.038Z,7.32
2022-09-23T07:46:52.711Z,7.36
2022-09-23T07:49:39.475Z,7.40
2022-09-23T07:52:26.167Z,7.41
2022-09-23T07:55:18.786Z,7.45
2022-09-23T07:58:07.441Z,7.51
2022-09-23T08:00:54.100Z,7.57
2022-09-23T08:03:40.802Z,7.64
2022-09-23T08:06:27.508Z,7.75
2022-09-23T08:09:14.511Z,7.89
2022-09-23T08:12:01.361Z,8.03
2022-09-23T08:14:48.048Z,8.16
2022-09-23T08:17:34.671Z,8.32
2022-09-23T08:20:42.568Z,8.46
2022-09-23T08:23:33.481Z,8.64
2022-09-23T08:26:22.308Z,8.77
2022-09-23T08:29:12.008Z,8.91
2022-09-23T08:31:59.751Z,9.04
2022-09-23T08:34:46.407Z,9.18
2022-09-23T08:37:33.057Z,9.29
2022-09-23T08:40:19.765Z,9.40
2022-09-23T08:43:07.148Z,9.50
2022-09-23T08:45:54.342Z,9.62
2022-09-23T08:48:44.513Z,9.72
2022-09-23T08:51:36.441Z,9.83
2022-09-23T08:54:31.225Z,9.95
2022-09-23T08:57:23.992Z,10.09
2022-09-23T09:00:15.232Z,10.24
2022-09-23T09:03:02.018Z,10.33
2022-09-23T09:05:54.148Z,10.46
2022-09-23T09:08:41.282Z,10.54
2022-09-23T09:11:31.265Z,10.62
2022-09-23T09:14:17.881Z,10.69
2022-09-23T09:17:05.360Z,10.78
2022-09-23T09:19:53.631Z,10.91
2022-09-23T09:22:49.400Z,11.00
2022-09-23T09:25:38.903Z,11.07
2022-09-23T09:28:40.889Z,11.15
2022-09-23T09:31:38.219Z,11.25
2022-09-23T09:34:27.801Z,11.31
2022-09-23T09:37:33.621Z,11.41
2022-09-23T09:40:20.594Z,11.51
2022-09-23T09:43:07.751Z,11.61
2022-09-23T09:45:57.755Z,11.71
2022-09-23T09:48:53.648Z,11.78
2022-09-23T09:51:42.555Z,11.87
2022-09-23T09:54:29.899Z,11.94
2022-09-23T09:57:18.046Z,12.03
2022-09-23T10:00:20.003Z,12.14
2022-09-23T10:03:13.258Z,12.24
2022-09-23T10:06:00.111Z,12.31
2022-09-23T10:09:10.035Z,12.37
2022-09-23T10:12:15.507Z,12.47
2022-09-23T10:15:02.170Z,12.57
2022-09-23T10:17:49.726Z,12.65
2022-09-23T10:20:38.052Z,12.74
2022-09-23T10:23:25.842Z,12.83
2022-09-23T10:26:12.853Z,12.95
2022-09-23T10:29:23.210Z,13.05
2022-09-23T10:32:14.406Z,13.14
2022-09-23T10:35:04.665Z,13.22
2022-09-23T10:37:56.430Z,13.28
2022-09-23T10:41:02.107Z,13.35
2022-09-23T10:43:57.914Z,13.45
2022-09-23T10:46:47.528Z,13.55
2022-09-23T10:49:47.561Z,13.62
2022-09-23T10:52:54.414Z,13.70
2022-09-23T10:55:57.119Z,13.81
2022-09-23T10:58:43.783Z,13.90
2022-09-23T11:01:43.876Z,13.97
2022-09-23T11:04:34.064Z,14.06
2022-09-23T11:07:26.746Z,14.11
2022-09-23T11:10:44.974Z,14.17
2022-09-23T11:13:35.345Z,14.26
2022-09-23T11:16:25.100Z,14.34
2022-09-23T11:19:34.080Z,14.42
2022-09-23T11:22:37.392Z,14.55
2022-09-23T11:25:42.938Z,14.63
2022-09-23T11:28:46.355Z,14.72
2022-09-23T11:31:49.446Z,14.78
2022-09-23T11:34:54.833Z,14.85
2022-09-23T11:37:46.137Z,14.91
2022-09-23T11:40:34.965Z,14.99
2022-09-23T11:43:23.435Z,15.07
2022-09-23T11:46:30.610Z,15.13
2022-09-23T11:49:27.430Z,15.20
2022-09-23T11:52:20.479Z,15.26
2022-09-23T11:55:20.027Z,15.32
2022-09-23T11:58:22.551Z,15.36
2022-09-23T12:01:28.031Z,15.39
2022-09-23T12:04:32.143Z,15.44
2022-09-23T12:07:20.786Z,15.48
2022-09-23T12:10:08.202Z,15.52
2022-09-23T12:12:54.854Z,15.57
2022-09-23T12:15:47.705Z,15.61
2022-09-23T12:18:55.600Z,15.64
2022-09-23T12:21:52.208Z,15.68
2022-09-23T12:24:44.840Z,15.70
2022-09-23T12:27:36.836Z,15.72
2022-09-23T12:30:24.981Z,15.77
2022-09-23T12:33:17.196Z,15.81
2022-09-23T12:36:06.756Z,15.85
2022-09-23T12:38:54.636Z,15.91
2022-09-23T12:41:41.575Z,15.94
2022-09-23T12:44:39.113Z,15.97
2022-09-23T12:47:36.983Z,16.00
2022-09-23T12:51:02.369Z,16.03
2022-09-23T12:53:54.918Z,16.09
2022-09-23T12:56:43.254Z,16.13
2022-09-23T12:59:30.874Z,16.19
2022-09-23T13:02:27.760Z,16.23
2022-09-23T13:05:39.807Z,16.29
2022-09-23T13:08:26.442Z,16.37
2022-09-23T13:11:19.494Z,16.46
2022-09-23T13:14:10.513Z,16.54
2022-09-23T13:16:58.362Z,16.62
2022-09-23T13:19:45.343Z,16.66
2022-09-23T13:22:41.383Z,16.73
2022-09-23T13:25:28.767Z,16.84
2022-09-23T13:28:21.703Z,16.91
2022-09-23T13:31:13.721Z,16.95
2022-09-23T13:34:02.013Z,16.95
2022-09-23T13:36:48.891Z,16.95
2022-09-23T13:39:35.528Z,17.00
2022-09-23T13:42:28.673Z,17.05
2022-09-23T13:45:19.422Z,17.06
2022-09-23T13:48:07.269Z,17.09
2022-09-23T13:50:54.296Z,17.14
2022-09-23T13:53:41.101Z,17.15
2022-09-23T13:56:28.978Z,17.16
2022-09-23T13:59:25.668Z,17.15
2022-09-23T14:02:13.101Z,17.15
2022-09-23T14:04:59.790Z,17.16
2022-09-23T14:07:46.441Z,17.17
2022-09-23T14:10:33.741Z,17.18
2022-09-23T14:13:25.757Z,17.21
2022-09-23T14:16:14.963Z,17.23
2022-09-23T14:19:01.727Z,17.22
2022-09-23T14:21:49.475Z,17.19
2022-09-23T14:24:36.282Z,17.20
2022-09-23T14:27:32.638Z,17.24
2022-09-23T14:30:19.282Z,17.23
2022-09-23T14:33:09.708Z,17.22
2022-09-23T14:36:29.419Z,17.24
2022-09-23T14:39:16.079Z,17.26
2022-09-23T14:42:06.618Z,17.31
2022-09-23T14:44:53.255Z,17.35
2022-09-23T14:47:42.075Z,17.38
2022-09-23T14:50:47.037Z,17.41
2022-09-23T14:53:33.858Z,17.42
2022-09-23T14:56:21.222Z,17.41
2022-09-23T14:59:23.384Z,17.36
2022-09-23T15:02:45.731Z,17.33
2022-09-23T15:05:39.667Z,17.38
2022-09-23T15:08:27.196Z,17.41
2022-09-23T15:11:13.858Z,17.46
2022-09-23T15:14:19.555Z,17.47
2022-09-23T15:17:12.711Z,17.49
2022-09-23T15:20:00.788Z,17.51
2022-09-23T15:22:48.818Z,17.51
2022-09-23T15:25:40.013Z,17.52
2022-09-23T15:28:27.164Z,17.49
2022-09-23T15:31:15.832Z,17.42
2022-09-23T15:34:02.668Z,17.34
2022-09-23T15:36:49.604Z,17.31
2022-09-23T15:39:42.894Z,17.28
2022-09-23T15:42:29.634Z,17.27
2022-09-23T15:45:16.401Z,17.25
2022-09-23T15:48:06.076Z,17.24
2022-09-23T15:50:52.894Z,17.25
2022-09-23T15:53:39.626Z,17.24
2022-09-23T15:56:29.296Z,17.21
2022-09-23T15:59:16.008Z,17.17
2022-09-23T16:02:06.769Z,17.13
2022-09-23T16:04:53.643Z,17.07
2022-09-23T16:07:40.408Z,17.04
2022-09-23T16:10:27.522Z,17.02
2022-09-23T16:13:14.348Z,17.00
2022-09-23T16:16:01.208Z,16.96
2022-09-23T16:18:48.696Z,16.92
2022-09-23T16:21:35.405Z,16.89
2022-09-23T16:24:27.382Z,16.87
2022-09-23T16:27:14.901Z,16.84
2022-09-23T16:30:01.695Z,16.81
2022-09-23T16:32:48.537Z,16.78
2022-09-23T16:35:35.166Z,16.75
2022-09-23T16:38:21.822Z,16.71
2022-09-23T16:41:09.011Z,16.67
2022-09-23T16:43:56.277Z,16.61
2022-09-23T16:46:43.173Z,16.57
2022-09-23T16:49:29.821Z,16.51
2022-09-23T16:52:16.843Z,16.45
2022-09-23T16:55:03.854Z,16.39
2022-09-23T16:57:50.699Z,16.31
2022-09-23T17:00:58.683Z,16.26
2022-09-23T17:03:47.147Z,16.21
2022-09-23T17:06:33.827Z,16.18
2022-09-23T17:09:21.415Z,16.13
2022-09-23T17:12:11.509Z,16.07
2022-09-23T17:14:58.499Z,16.02
2022-09-23T17:17:45.137Z,15.96
2022-09-23T17:20:31.858Z,15.91
2022-09-23T17:23:21.251Z,15.84
2022-09-23T17:26:12.506Z,15.79
2022-09-23T17:29:01.937Z,15.73
2022-09-23T17:31:48.616Z,15.68
2022-09-23T17:34:35.409Z,15.62
2022-09-23T17:37:22.231Z,15.55
2022-09-23T17:40:09.102Z,15.51
2022-09-23T17:43:03.311Z,15.45
2022-09-23T17:45:50.061Z,15.41
2022-09-23T17:48:37.661Z,15.41
2022-09-23T17:51:25.261Z,15.42
2022-09-23T17:54:12.107Z,15.43
2022-09-23T17:56:59.268Z,15.44
2022-09-23T17:59:45.998Z,15.45
2022-09-23T18:02:32.713Z,15.44
2022-09-23T18:05:19.512Z,15.44
2022-09-23T18:08:06.244Z,15.43
2022-09-23T18:10:52.926Z,15.41
2022-09-23T18:13:39.592Z,15.38
2022-09-23T18:16:30.221Z,15.36
2022-09-23T18:19:18.056Z,15.35
2022-09-23T18:22:04.682Z,15.31
2022-09-23T18:24:51.329Z,15.28
2022-09-23T18:27:37.972Z,15.26
2022-09-23T18:30:25.034Z,15.22
2022-09-23T18:33:11.673Z,15.20
2022-09-23T18:36:01.748Z,15.15
2022-09-23T18:38:48.571Z,15.12
2022-09-23T18:41:35.227Z,15.09
2022-09-23T18:44:23.273Z,15.06
2022-09-23T18:47:29.886Z,15.02
2022-09-23T18:50:35.134Z,14.98
2022-09-23T18:53:24.194Z,14.93
2022-09-23T18:56:12.222Z,14.90
2022-09-23T18:58:59.136Z,14.86
2022-09-23T19:01:46.141Z,14.83
2022-09-23T19:04:32.928Z,14.80
2022-09-23T19:07:21.849Z,14.76
2022-09-23T19:10:08.781Z,14.71
2022-09-23T19:12:55.471Z,14.68
2022-09-23T19:15:42.199Z,14.64
2022-09-23T19:18:31.461Z,14.60
2022-09-23T19:21:22.097Z,14.58
2022-09-23T19:24:08.938Z,14.54
2022-09-23T19:26:56.383Z,14.51
2022-09-23T19:29:43.029Z,14.48
2022-09-23T19:32:30.016Z,14.43
2022-09-23T19:35:16.784Z,14.40
2022-09-23T19:38:03.629Z,14.36
2022-09-23T19:40:52.055Z,14.32
2022-09-23T19:43:38.813Z,14.28
2022-09-23T19:46:25.804Z,14.24
2022-09-23T19:49:13.009Z,14.21
2022-09-23T19:52:00.408Z,14.17
2022-09-23T19:54:48.649Z,14.13
2022-09-23T19:57:35.311Z,14.10
2022-09-23T20:00:22.732Z,14.04
2022-09-23T20:03:09.720Z,14.01
2022-09-23T20:05:56.874Z,13.95
2022-09-23T20:08:43.770Z,13.92
2022-09-23T20:11:31.533Z,13.87
2022-09-23T20:14:19.719Z,13.84
2022-09-23T20:17:07.598Z,13.80
2022-09-23T20:19:54.263Z,13.76
2022-09-23T20:22:43.324Z,13.71
2022-09-23T20:25:49.966Z,13.67
2022-09-23T20:28:36.604Z,13.64
2022-09-23T20:31:23.792Z,13.60
2022-09-23T20:34:11.145Z,13.57
2022-09-23T20:36:59.131Z,13.52
2022-09-23T20:39:49.126Z,13.47
2022-09-23T20:42:35.776Z,13.42
2022-09-23T20:45:22.427Z,13.40
2022-09-23T20:48:11.328Z,13.35
2022-09-23T20:51:01.594Z,13.32
2022-09-23T20:53:49.109Z,13.28
2022-09-23T20:56:35.789Z,13.24
2022-09-23T20:59:22.445Z,13.21
2022-09-23T21:02:09.589Z,13.17
2022-09-23T21:04:56.863Z,13.14
2022-09-23T21:07:46.326Z,13.10
2022-09-23T21:10:33.224Z,13.07
2022-09-23T21:13:19.871Z,13.03
2022-09-23T21:16:08.150Z,12.98
2022-09-23T21:18:54.843Z,12.95
2022-09-23T21:21:41.576Z,12.91
2022-09-23T21:27:38.562Z,12.85
2022-09-23T21:30:25.539Z,12.81
2022-09-23T21:33:13.084Z,12.78
2022-09-23T21:36:03.574Z,12.74
2022-09-23T21:38:50.659Z,12.71
2022-09-23T21:41:37.710Z,12.67
2022-09-23T21:44:24.796Z,12.63
2022-09-23T21:47:11.538Z,12.61
2022-09-23T21:49:58.209Z,12.57
2022-09-23T21:52:50.309Z,12.53
2022-09-23T21:55:37.439Z,12.50
2022-09-23T21:58:26.612Z,12.48
2022-09-23T22:01:20.357Z,12.44
2022-09-23T22:04:09.160Z,12.41
2022-09-23T22:06:56.035Z,12.39
2022-09-23T22:09:46.828Z,12.36
2022-09-23T22:12:33.760Z,12.33
2022-09-23T22:15:20.416Z,12.30
2022-09-23T22:18:07.144Z,12.26
2022-09-23T22:20:55.343Z,12.24
2022-09-23T22:23:42.174Z,12.22
2022-09-23T22:26:29.230Z,12.20
2022-09-23T22:29:34.661Z,12.16
2022-09-23T22:32:55.331Z,12.13
2022-09-23T22:35:42.071Z,12.12
2022-09-23T22:38:29.636Z,12.09
2022-09-23T22:41:16.325Z,12.07
2022-09-23T22:44:03.658Z,12.03
2022-09-23T22:46:51.025Z,11.99
2022-09-23T22:49:37.732Z,11.98
2022-09-23T22:52:24.545Z,11.95
2022-09-23T22:55:11.762Z,11.94
2022-09-23T22:58:10.449Z,11.92
2022-09-23T23:01:05.424Z,11.90
2022-09-23T23:03:54.970Z,11.88
2022-09-23T23:06:42.785Z,11.85
2022-09-23T23:09:29.456Z,11.84
2022-09-23T23:12:16.742Z,11.81
2022-09-23T23:15:03.556Z,11.79
2022-09-23T23:17:52.183Z,11.77
2022-09-23T23:20:38.980Z,11.75
2022-09-23T23:23:25.624Z,11.75
2022-09-23T23:26:15.041Z,11.71
2022-09-23T23:29:01.729Z,11.70
2022-09-23T23:31:48.566Z,11.68
2022-09-23T23:34:35.324Z,11.66
2022-09-23T23:37:21.967Z,11.62
2022-09-23T23:40:08.917Z,11.61
2022-09-23T23:42:55.670Z,11.59
2022-09-23T23:45:43.665Z,11.56
2022-09-23T23:48:30.576Z,11.54
2022-09-23T23:51:17.280Z,11.53
2022-09-23T23:54:04.111Z,11.50
2022-09-23T23:56:51.004Z,11.47
2022-09-23T23:59:37.666Z,11.45
